sensor_id;sensor_type;location;lat;lon;timestamp;P1;durP1;ratioP1;P2;durP2;ratioP2
84816;SDS011;75051;53.104;18.058;2023-12-20T00:01:40;5.90;;;3.70;;
84816;SDS011;75051;53.104;18.058;2023-12-20T00:04:06;8.30;;;5.90;;
84816;SDS011;75051;53.104;18.058;2023-12-20T00:06:32;8.40;;;5.70;;
84816;SDS011;75051;53.104;18.058;2023-12-20T00:08:58;7.10;;;5.40;;
84816;SDS011;75051;53.104;18.058;2023-12-20T00:11:24;5.90;;;4.30;;
84816;SDS011;75051;53.104;18.058;2023-12-20T00:13:50;6.80;;;4.40;;
84816;SDS011;75051;53.104;18.058;2023-12-20T00:16:16;6.50;;;4.80;;
84816;SDS011;75051;53.104;18.058;2023-12-20T00:18:42;6.90;;;5.00;;
84816;SDS011;75051;53.104;18.058;2023-12-20T00:21:08;5.60;;;4.30;;
84816;SDS011;75051;53.104;18.058;2023-12-20T00:23:34;7.20;;;4.70;;
84816;SDS011;75051;53.104;18.058;2023-12-20T00:26:00;7.40;;;4.30;;
84816;SDS011;75051;53.104;18.058;2023-12-20T00:28:26;6.80;;;5.20;;
84816;SDS011;75051;53.104;18.058;2023-12-20T00:30:52;7.80;;;5.50;;
84816;SDS011;75051;53.104;18.058;2023-12-20T00:33:18;7.30;;;5.70;;
84816;SDS011;75051;53.104;18.058;2023-12-20T00:35:44;7.40;;;4.50;;
84816;SDS011;75051;53.104;18.058;2023-12-20T00:38:10;7.00;;;4.80;;
84816;SDS011;75051;53.104;18.058;2023-12-20T00:40:37;7.00;;;5.20;;
84816;SDS011;75051;53.104;18.058;2023-12-20T00:43:03;7.70;;;4.80;;
84816;SDS011;75051;53.104;18.058;2023-12-20T00:45:29;6.80;;;4.90;;
84816;SDS011;75051;53.104;18.058;2023-12-20T00:47:55;7.70;;;5.60;;
84816;SDS011;75051;53.104;18.058;2023-12-20T00:50:21;7.00;;;4.20;;
84816;SDS011;75051;53.104;18.058;2023-12-20T00:52:47;7.00;;;4.30;;
84816;SDS011;75051;53.104;18.058;2023-12-20T00:55:14;7.00;;;4.90;;
84816;SDS011;75051;53.104;18.058;2023-12-20T00:57:40;6.70;;;4.60;;
84816;SDS011;75051;53.104;18.058;2023-12-20T01:00:06;6.90;;;4.50;;
84816;SDS011;75051;53.104;18.058;2023-12-20T01:02:35;7.70;;;5.60;;
84816;SDS011;75051;53.104;18.058;2023-12-20T01:05:01;7.20;;;5.40;;
84816;SDS011;75051;53.104;18.058;2023-12-20T01:07:28;6.80;;;5.20;;
84816;SDS011;75051;53.104;18.058;2023-12-20T01:09:54;6.90;;;4.50;;
84816;SDS011;75051;53.104;18.058;2023-12-20T01:12:20;8.20;;;4.50;;
84816;SDS011;75051;53.104;18.058;2023-12-20T01:14:46;6.20;;;4.50;;
84816;SDS011;75051;53.104;18.058;2023-12-20T01:17:12;6.10;;;4.70;;
84816;SDS011;75051;53.104;18.058;2023-12-20T01:19:38;6.50;;;4.60;;
84816;SDS011;75051;53.104;18.058;2023-12-20T01:22:04;6.80;;;4.70;;
84816;SDS011;75051;53.104;18.058;2023-12-20T01:24:30;5.60;;;4.30;;
84816;SDS011;75051;53.104;18.058;2023-12-20T01:26:56;6.20;;;4.80;;
84816;SDS011;75051;53.104;18.058;2023-12-20T01:29:22;5.20;;;4.30;;
84816;SDS011;75051;53.104;18.058;2023-12-20T01:31:48;6.60;;;5.30;;
84816;SDS011;75051;53.104;18.058;2023-12-20T01:34:14;6.70;;;4.80;;
84816;SDS011;75051;53.104;18.058;2023-12-20T01:36:40;6.40;;;4.10;;
84816;SDS011;75051;53.104;18.058;2023-12-20T01:39:06;6.40;;;4.70;;
84816;SDS011;75051;53.104;18.058;2023-12-20T01:41:32;7.30;;;4.40;;
84816;SDS011;75051;53.104;18.058;2023-12-20T01:43:58;5.60;;;4.20;;
84816;SDS011;75051;53.104;18.058;2023-12-20T01:46:24;6.60;;;4.20;;
84816;SDS011;75051;53.104;18.058;2023-12-20T01:48:51;6.70;;;5.00;;
84816;SDS011;75051;53.104;18.058;2023-12-20T01:51:17;6.30;;;4.50;;
84816;SDS011;75051;53.104;18.058;2023-12-20T01:53:44;6.40;;;4.90;;
84816;SDS011;75051;53.104;18.058;2023-12-20T01:56:10;4.40;;;3.40;;
84816;SDS011;75051;53.104;18.058;2023-12-20T01:58:43;7.60;;;5.00;;
84816;SDS011;75051;53.104;18.058;2023-12-20T02:01:10;7.20;;;4.90;;
84816;SDS011;75051;53.104;18.058;2023-12-20T02:03:37;5.60;;;4.10;;
84816;SDS011;75051;53.104;18.058;2023-12-20T02:06:04;6.60;;;4.60;;
84816;SDS011;75051;53.104;18.058;2023-12-20T02:08:30;5.70;;;4.90;;
84816;SDS011;75051;53.104;18.058;2023-12-20T02:10:56;6.40;;;4.20;;
84816;SDS011;75051;53.104;18.058;2023-12-20T02:13:23;5.90;;;4.40;;
84816;SDS011;75051;53.104;18.058;2023-12-20T02:15:49;5.50;;;4.20;;
84816;SDS011;75051;53.104;18.058;2023-12-20T02:18:15;5.70;;;4.80;;
84816;SDS011;75051;53.104;18.058;2023-12-20T02:20:42;5.20;;;3.80;;
84816;SDS011;75051;53.104;18.058;2023-12-20T02:23:08;6.20;;;4.10;;
84816;SDS011;75051;53.104;18.058;2023-12-20T02:25:34;6.10;;;4.60;;
84816;SDS011;75051;53.104;18.058;2023-12-20T02:28:00;6.60;;;4.50;;
84816;SDS011;75051;53.104;18.058;2023-12-20T02:30:27;6.10;;;4.20;;
84816;SDS011;75051;53.104;18.058;2023-12-20T02:32:53;5.00;;;3.80;;
84816;SDS011;75051;53.104;18.058;2023-12-20T02:35:19;5.60;;;4.10;;
84816;SDS011;75051;53.104;18.058;2023-12-20T02:37:45;6.80;;;4.90;;
84816;SDS011;75051;53.104;18.058;2023-12-20T02:40:11;6.70;;;3.70;;
84816;SDS011;75051;53.104;18.058;2023-12-20T02:42:37;6.90;;;4.40;;
84816;SDS011;75051;53.104;18.058;2023-12-20T02:45:03;6.50;;;4.60;;
84816;SDS011;75051;53.104;18.058;2023-12-20T02:47:30;4.70;;;3.20;;
84816;SDS011;75051;53.104;18.058;2023-12-20T02:49:56;6.20;;;4.00;;
84816;SDS011;75051;53.104;18.058;2023-12-20T02:52:23;6.30;;;4.20;;
84816;SDS011;75051;53.104;18.058;2023-12-20T02:54:50;6.10;;;3.90;;
84816;SDS011;75051;53.104;18.058;2023-12-20T02:57:15;5.10;;;3.80;;
84816;SDS011;75051;53.104;18.058;2023-12-20T02:59:41;5.90;;;4.00;;
84816;SDS011;75051;53.104;18.058;2023-12-20T03:02:08;6.60;;;5.70;;
84816;SDS011;75051;53.104;18.058;2023-12-20T03:04:33;6.40;;;4.60;;
84816;SDS011;75051;53.104;18.058;2023-12-20T03:06:59;6.30;;;4.20;;
84816;SDS011;75051;53.104;18.058;2023-12-20T03:09:26;5.60;;;4.30;;
84816;SDS011;75051;53.104;18.058;2023-12-20T03:11:51;6.00;;;3.90;;
84816;SDS011;75051;53.104;18.058;2023-12-20T03:14:19;5.70;;;4.30;;
84816;SDS011;75051;53.104;18.058;2023-12-20T03:16:51;4.70;;;3.80;;
84816;SDS011;75051;53.104;18.058;2023-12-20T03:19:17;5.50;;;4.20;;
84816;SDS011;75051;53.104;18.058;2023-12-20T03:21:44;6.30;;;4.50;;
84816;SDS011;75051;53.104;18.058;2023-12-20T03:24:10;6.00;;;4.90;;
84816;SDS011;75051;53.104;18.058;2023-12-20T03:26:37;5.40;;;3.90;;
84816;SDS011;75051;53.104;18.058;2023-12-20T03:29:02;5.40;;;4.40;;
84816;SDS011;75051;53.104;18.058;2023-12-20T03:31:28;4.90;;;3.20;;
84816;SDS011;75051;53.104;18.058;2023-12-20T03:33:54;5.00;;;3.70;;
84816;SDS011;75051;53.104;18.058;2023-12-20T03:36:20;6.50;;;4.20;;
84816;SDS011;75051;53.104;18.058;2023-12-20T03:38:47;5.30;;;4.40;;
84816;SDS011;75051;53.104;18.058;2023-12-20T03:41:13;5.20;;;3.90;;
84816;SDS011;75051;53.104;18.058;2023-12-20T03:43:39;5.00;;;3.80;;
84816;SDS011;75051;53.104;18.058;2023-12-20T03:46:05;5.90;;;3.90;;
84816;SDS011;75051;53.104;18.058;2023-12-20T03:48:31;5.40;;;3.90;;
84816;SDS011;75051;53.104;18.058;2023-12-20T03:50:57;5.20;;;3.70;;
84816;SDS011;75051;53.104;18.058;2023-12-20T03:53:24;5.70;;;3.80;;
84816;SDS011;75051;53.104;18.058;2023-12-20T03:55:51;4.60;;;3.30;;
84816;SDS011;75051;53.104;18.058;2023-12-20T03:58:18;5.90;;;5.00;;
84816;SDS011;75051;53.104;18.058;2023-12-20T04:00:44;5.50;;;3.90;;
84816;SDS011;75051;53.104;18.058;2023-12-20T04:03:10;6.00;;;3.90;;
84816;SDS011;75051;53.104;18.058;2023-12-20T04:05:40;4.80;;;3.70;;
84816;SDS011;75051;53.104;18.058;2023-12-20T04:08:06;4.80;;;3.60;;
84816;SDS011;75051;53.104;18.058;2023-12-20T04:10:33;5.80;;;4.10;;
84816;SDS011;75051;53.104;18.058;2023-12-20T04:12:59;5.30;;;4.00;;
84816;SDS011;75051;53.104;18.058;2023-12-20T04:15:24;5.70;;;4.00;;
84816;SDS011;75051;53.104;18.058;2023-12-20T04:17:50;4.20;;;3.10;;
84816;SDS011;75051;53.104;18.058;2023-12-20T04:20:18;4.90;;;3.40;;
84816;SDS011;75051;53.104;18.058;2023-12-20T04:22:43;5.00;;;3.40;;
84816;SDS011;75051;53.104;18.058;2023-12-20T04:25:09;4.90;;;3.30;;
84816;SDS011;75051;53.104;18.058;2023-12-20T04:27:35;5.30;;;3.30;;
84816;SDS011;75051;53.104;18.058;2023-12-20T04:30:01;4.40;;;3.00;;
84816;SDS011;75051;53.104;18.058;2023-12-20T04:32:27;4.00;;;2.90;;
84816;SDS011;75051;53.104;18.058;2023-12-20T04:34:53;4.40;;;3.30;;
84816;SDS011;75051;53.104;18.058;2023-12-20T04:37:19;3.60;;;2.90;;
84816;SDS011;75051;53.104;18.058;2023-12-20T04:39:45;3.80;;;2.50;;
84816;SDS011;75051;53.104;18.058;2023-12-20T04:42:11;5.00;;;2.80;;
84816;SDS011;75051;53.104;18.058;2023-12-20T04:44:37;4.00;;;2.50;;
84816;SDS011;75051;53.104;18.058;2023-12-20T04:47:03;3.80;;;2.60;;
84816;SDS011;75051;53.104;18.058;2023-12-20T04:49:29;4.60;;;2.50;;
84816;SDS011;75051;53.104;18.058;2023-12-20T04:51:55;3.90;;;2.70;;
84816;SDS011;75051;53.104;18.058;2023-12-20T04:54:21;3.10;;;2.10;;
84816;SDS011;75051;53.104;18.058;2023-12-20T04:56:47;2.90;;;1.90;;
84816;SDS011;75051;53.104;18.058;2023-12-20T04:59:13;3.40;;;2.10;;
84816;SDS011;75051;53.104;18.058;2023-12-20T05:01:39;2.70;;;1.80;;
84816;SDS011;75051;53.104;18.058;2023-12-20T05:04:05;3.40;;;2.40;;
84816;SDS011;75051;53.104;18.058;2023-12-20T05:06:31;3.20;;;2.20;;
84816;SDS011;75051;53.104;18.058;2023-12-20T05:08:57;3.50;;;2.20;;
84816;SDS011;75051;53.104;18.058;2023-12-20T05:11:23;3.00;;;2.00;;
84816;SDS011;75051;53.104;18.058;2023-12-20T05:13:49;7.50;;;2.60;;
84816;SDS011;75051;53.104;18.058;2023-12-20T05:16:15;3.60;;;2.30;;
84816;SDS011;75051;53.104;18.058;2023-12-20T05:18:48;3.70;;;2.50;;
84816;SDS011;75051;53.104;18.058;2023-12-20T05:21:18;4.30;;;2.20;;
84816;SDS011;75051;53.104;18.058;2023-12-20T05:23:44;4.20;;;2.40;;
84816;SDS011;75051;53.104;18.058;2023-12-20T05:26:13;4.40;;;2.40;;
84816;SDS011;75051;53.104;18.058;2023-12-20T05:28:39;3.00;;;2.00;;
84816;SDS011;75051;53.104;18.058;2023-12-20T05:31:05;3.40;;;2.30;;
84816;SDS011;75051;53.104;18.058;2023-12-20T05:33:32;4.90;;;2.40;;
84816;SDS011;75051;53.104;18.058;2023-12-20T05:35:58;3.40;;;2.50;;
84816;SDS011;75051;53.104;18.058;2023-12-20T05:38:24;3.80;;;2.60;;
84816;SDS011;75051;53.104;18.058;2023-12-20T05:40:50;4.60;;;2.50;;
84816;SDS011;75051;53.104;18.058;2023-12-20T05:43:16;3.60;;;2.30;;
84816;SDS011;75051;53.104;18.058;2023-12-20T05:45:42;4.50;;;2.40;;
84816;SDS011;75051;53.104;18.058;2023-12-20T05:48:08;3.50;;;2.40;;
84816;SDS011;75051;53.104;18.058;2023-12-20T05:50:34;4.20;;;2.90;;
84816;SDS011;75051;53.104;18.058;2023-12-20T05:53:00;3.40;;;2.40;;
84816;SDS011;75051;53.104;18.058;2023-12-20T05:55:27;4.20;;;2.60;;
84816;SDS011;75051;53.104;18.058;2023-12-20T05:57:53;4.70;;;2.90;;
84816;SDS011;75051;53.104;18.058;2023-12-20T06:00:19;4.40;;;2.70;;
84816;SDS011;75051;53.104;18.058;2023-12-20T06:02:45;4.40;;;2.70;;
84816;SDS011;75051;53.104;18.058;2023-12-20T06:05:11;4.10;;;2.50;;
84816;SDS011;75051;53.104;18.058;2023-12-20T06:07:37;6.20;;;3.20;;
84816;SDS011;75051;53.104;18.058;2023-12-20T06:10:03;5.80;;;3.80;;
84816;SDS011;75051;53.104;18.058;2023-12-20T06:12:31;5.70;;;3.60;;
84816;SDS011;75051;53.104;18.058;2023-12-20T06:14:59;5.10;;;2.90;;
84816;SDS011;75051;53.104;18.058;2023-12-20T06:17:25;4.50;;;2.80;;
84816;SDS011;75051;53.104;18.058;2023-12-20T06:19:51;5.70;;;3.70;;
84816;SDS011;75051;53.104;18.058;2023-12-20T06:22:17;5.20;;;3.40;;
84816;SDS011;75051;53.104;18.058;2023-12-20T06:24:43;5.90;;;3.70;;
84816;SDS011;75051;53.104;18.058;2023-12-20T06:27:09;5.40;;;3.40;;
84816;SDS011;75051;53.104;18.058;2023-12-20T06:29:35;5.70;;;3.20;;
84816;SDS011;75051;53.104;18.058;2023-12-20T06:32:00;6.90;;;4.40;;
84816;SDS011;75051;53.104;18.058;2023-12-20T06:34:26;7.90;;;4.30;;
84816;SDS011;75051;53.104;18.058;2023-12-20T06:36:52;5.80;;;3.50;;
84816;SDS011;75051;53.104;18.058;2023-12-20T06:39:18;6.30;;;3.50;;
84816;SDS011;75051;53.104;18.058;2023-12-20T06:41:44;6.20;;;3.60;;
84816;SDS011;75051;53.104;18.058;2023-12-20T06:44:10;6.50;;;3.10;;
84816;SDS011;75051;53.104;18.058;2023-12-20T06:46:36;5.80;;;2.70;;
84816;SDS011;75051;53.104;18.058;2023-12-20T06:49:02;6.10;;;3.20;;
84816;SDS011;75051;53.104;18.058;2023-12-20T06:51:28;4.70;;;3.30;;
84816;SDS011;75051;53.104;18.058;2023-12-20T06:53:54;4.20;;;3.30;;
84816;SDS011;75051;53.104;18.058;2023-12-20T06:56:19;4.70;;;3.20;;
84816;SDS011;75051;53.104;18.058;2023-12-20T06:58:46;5.20;;;3.10;;
84816;SDS011;75051;53.104;18.058;2023-12-20T07:01:15;5.50;;;2.90;;
84816;SDS011;75051;53.104;18.058;2023-12-20T07:03:42;5.20;;;3.00;;
84816;SDS011;75051;53.104;18.058;2023-12-20T07:06:08;7.60;;;4.00;;
84816;SDS011;75051;53.104;18.058;2023-12-20T07:08:34;5.30;;;3.30;;
84816;SDS011;75051;53.104;18.058;2023-12-20T07:11:00;8.10;;;3.50;;
84816;SDS011;75051;53.104;18.058;2023-12-20T07:13:26;7.70;;;4.40;;
84816;SDS011;75051;53.104;18.058;2023-12-20T07:15:52;5.10;;;3.70;;
84816;SDS011;75051;53.104;18.058;2023-12-20T07:18:18;5.40;;;3.50;;
84816;SDS011;75051;53.104;18.058;2023-12-20T07:20:44;7.10;;;4.40;;
84816;SDS011;75051;53.104;18.058;2023-12-20T07:23:10;8.10;;;4.10;;
84816;SDS011;75051;53.104;18.058;2023-12-20T07:25:35;6.40;;;3.80;;
84816;SDS011;75051;53.104;18.058;2023-12-20T07:28:01;4.50;;;2.90;;
84816;SDS011;75051;53.104;18.058;2023-12-20T07:30:27;5.80;;;3.80;;
84816;SDS011;75051;53.104;18.058;2023-12-20T07:32:54;4.80;;;3.50;;
84816;SDS011;75051;53.104;18.058;2023-12-20T07:35:20;5.00;;;3.30;;
84816;SDS011;75051;53.104;18.058;2023-12-20T07:37:46;5.80;;;3.30;;
84816;SDS011;75051;53.104;18.058;2023-12-20T07:40:12;5.80;;;3.70;;
84816;SDS011;75051;53.104;18.058;2023-12-20T07:42:38;6.10;;;3.60;;
84816;SDS011;75051;53.104;18.058;2023-12-20T07:45:04;7.50;;;3.80;;
84816;SDS011;75051;53.104;18.058;2023-12-20T07:47:30;5.90;;;3.20;;
84816;SDS011;75051;53.104;18.058;2023-12-20T07:49:56;8.40;;;3.40;;
84816;SDS011;75051;53.104;18.058;2023-12-20T07:52:22;5.80;;;5.20;;
84816;SDS011;75051;53.104;18.058;2023-12-20T07:54:49;5.40;;;3.60;;
84816;SDS011;75051;53.104;18.058;2023-12-20T07:57:15;5.00;;;3.20;;
84816;SDS011;75051;53.104;18.058;2023-12-20T07:59:41;3.90;;;3.30;;
84816;SDS011;75051;53.104;18.058;2023-12-20T08:02:07;4.80;;;3.10;;
84816;SDS011;75051;53.104;18.058;2023-12-20T08:04:32;8.00;;;4.60;;
84816;SDS011;75051;53.104;18.058;2023-12-20T08:06:58;9.90;;;4.50;;
84816;SDS011;75051;53.104;18.058;2023-12-20T08:09:26;7.90;;;4.00;;
84816;SDS011;75051;53.104;18.058;2023-12-20T08:11:53;8.40;;;4.10;;
84816;SDS011;75051;53.104;18.058;2023-12-20T08:14:19;6.80;;;4.50;;
84816;SDS011;75051;53.104;18.058;2023-12-20T08:16:45;9.70;;;6.20;;
84816;SDS011;75051;53.104;18.058;2023-12-20T08:19:11;10.20;;;5.90;;
84816;SDS011;75051;53.104;18.058;2023-12-20T08:21:36;8.00;;;4.70;;
84816;SDS011;75051;53.104;18.058;2023-12-20T08:24:04;9.90;;;4.50;;
84816;SDS011;75051;53.104;18.058;2023-12-20T08:26:30;7.90;;;5.20;;
84816;SDS011;75051;53.104;18.058;2023-12-20T08:28:56;5.10;;;3.50;;
84816;SDS011;75051;53.104;18.058;2023-12-20T08:31:22;5.20;;;3.40;;
84816;SDS011;75051;53.104;18.058;2023-12-20T08:33:48;6.00;;;3.80;;
84816;SDS011;75051;53.104;18.058;2023-12-20T08:36:15;6.10;;;3.60;;
84816;SDS011;75051;53.104;18.058;2023-12-20T08:38:43;7.00;;;3.80;;
84816;SDS011;75051;53.104;18.058;2023-12-20T08:41:09;4.60;;;2.70;;
84816;SDS011;75051;53.104;18.058;2023-12-20T08:43:35;8.10;;;4.50;;
84816;SDS011;75051;53.104;18.058;2023-12-20T08:46:01;6.20;;;4.00;;
84816;SDS011;75051;53.104;18.058;2023-12-20T08:48:28;5.10;;;3.70;;
84816;SDS011;75051;53.104;18.058;2023-12-20T08:50:54;5.30;;;3.50;;
84816;SDS011;75051;53.104;18.058;2023-12-20T08:53:21;9.10;;;3.70;;
84816;SDS011;75051;53.104;18.058;2023-12-20T08:55:47;8.00;;;4.60;;
84816;SDS011;75051;53.104;18.058;2023-12-20T08:58:13;6.80;;;4.20;;
84816;SDS011;75051;53.104;18.058;2023-12-20T09:00:39;9.00;;;4.30;;
84816;SDS011;75051;53.104;18.058;2023-12-20T09:03:05;8.00;;;4.80;;
84816;SDS011;75051;53.104;18.058;2023-12-20T09:05:31;11.00;;;4.90;;
84816;SDS011;75051;53.104;18.058;2023-12-20T09:07:58;12.10;;;4.90;;
84816;SDS011;75051;53.104;18.058;2023-12-20T09:10:24;10.60;;;5.00;;
84816;SDS011;75051;53.104;18.058;2023-12-20T09:12:53;15.00;;;7.30;;
84816;SDS011;75051;53.104;18.058;2023-12-20T09:15:23;12.30;;;5.90;;
84816;SDS011;75051;53.104;18.058;2023-12-20T09:17:50;11.00;;;6.20;;
84816;SDS011;75051;53.104;18.058;2023-12-20T09:20:16;8.80;;;6.00;;
84816;SDS011;75051;53.104;18.058;2023-12-20T09:22:41;7.30;;;4.70;;
84816;SDS011;75051;53.104;18.058;2023-12-20T09:25:10;8.90;;;5.40;;
84816;SDS011;75051;53.104;18.058;2023-12-20T09:27:38;7.20;;;4.90;;
84816;SDS011;75051;53.104;18.058;2023-12-20T09:30:04;6.50;;;4.10;;
84816;SDS011;75051;53.104;18.058;2023-12-20T09:32:31;8.90;;;4.80;;
84816;SDS011;75051;53.104;18.058;2023-12-20T09:34:57;7.30;;;4.20;;
84816;SDS011;75051;53.104;18.058;2023-12-20T09:37:26;7.00;;;4.70;;
84816;SDS011;75051;53.104;18.058;2023-12-20T09:39:53;6.20;;;3.70;;
84816;SDS011;75051;53.104;18.058;2023-12-20T09:42:56;7.30;;;4.40;;
84816;SDS011;75051;53.104;18.058;2023-12-20T09:45:19;6.70;;;5.00;;
84816;SDS011;75051;53.104;18.058;2023-12-20T09:47:46;6.30;;;3.40;;
84816;SDS011;75051;53.104;18.058;2023-12-20T09:50:12;7.90;;;3.90;;
84816;SDS011;75051;53.104;18.058;2023-12-20T09:52:39;5.00;;;4.20;;
84816;SDS011;75051;53.104;18.058;2023-12-20T09:55:06;8.40;;;3.20;;
84816;SDS011;75051;53.104;18.058;2023-12-20T09:57:33;6.10;;;3.40;;
84816;SDS011;75051;53.104;18.058;2023-12-20T09:59:59;8.10;;;3.80;;
84816;SDS011;75051;53.104;18.058;2023-12-20T10:02:25;6.40;;;3.60;;
84816;SDS011;75051;53.104;18.058;2023-12-20T10:04:54;6.80;;;4.40;;
84816;SDS011;75051;53.104;18.058;2023-12-20T10:07:20;7.10;;;4.40;;
84816;SDS011;75051;53.104;18.058;2023-12-20T10:09:48;10.10;;;6.70;;
84816;SDS011;75051;53.104;18.058;2023-12-20T10:12:14;6.30;;;4.00;;
84816;SDS011;75051;53.104;18.058;2023-12-20T10:14:40;6.60;;;4.50;;
84816;SDS011;75051;53.104;18.058;2023-12-20T10:17:06;7.40;;;4.20;;
84816;SDS011;75051;53.104;18.058;2023-12-20T10:19:32;7.60;;;4.90;;
84816;SDS011;75051;53.104;18.058;2023-12-20T10:21:59;6.60;;;4.80;;
84816;SDS011;75051;53.104;18.058;2023-12-20T10:24:28;8.00;;;6.10;;
84816;SDS011;75051;53.104;18.058;2023-12-20T10:27:01;8.40;;;4.70;;
84816;SDS011;75051;53.104;18.058;2023-12-20T10:29:34;6.10;;;4.20;;
84816;SDS011;75051;53.104;18.058;2023-12-20T10:32:22;8.10;;;4.90;;
84816;SDS011;75051;53.104;18.058;2023-12-20T10:34:53;8.10;;;5.90;;
84816;SDS011;75051;53.104;18.058;2023-12-20T10:37:20;8.90;;;4.90;;
84816;SDS011;75051;53.104;18.058;2023-12-20T10:39:50;6.30;;;4.90;;
84816;SDS011;75051;53.104;18.058;2023-12-20T10:42:24;6.80;;;5.90;;
84816;SDS011;75051;53.104;18.058;2023-12-20T10:44:52;8.50;;;4.50;;
84816;SDS011;75051;53.104;18.058;2023-12-20T10:47:19;7.10;;;4.20;;
84816;SDS011;75051;53.104;18.058;2023-12-20T10:49:46;8.80;;;5.70;;
84816;SDS011;75051;53.104;18.058;2023-12-20T10:52:12;7.60;;;4.80;;
84816;SDS011;75051;53.104;18.058;2023-12-20T10:54:39;4.80;;;3.80;;
84816;SDS011;75051;53.104;18.058;2023-12-20T10:57:07;6.00;;;3.90;;
84816;SDS011;75051;53.104;18.058;2023-12-20T10:59:33;7.10;;;4.80;;
84816;SDS011;75051;53.104;18.058;2023-12-20T11:02:05;7.20;;;4.00;;
84816;SDS011;75051;53.104;18.058;2023-12-20T11:04:54;7.60;;;3.70;;
84816;SDS011;75051;53.104;18.058;2023-12-20T11:08:06;6.20;;;3.60;;
84816;SDS011;75051;53.104;18.058;2023-12-20T11:10:59;5.50;;;2.80;;
84816;SDS011;75051;53.104;18.058;2023-12-20T11:13:37;5.30;;;3.60;;
84816;SDS011;75051;53.104;18.058;2023-12-20T11:16:10;7.20;;;4.00;;
84816;SDS011;75051;53.104;18.058;2023-12-20T11:18:36;6.70;;;3.90;;
84816;SDS011;75051;53.104;18.058;2023-12-20T11:21:02;7.20;;;3.10;;
84816;SDS011;75051;53.104;18.058;2023-12-20T11:23:31;8.10;;;4.20;;
84816;SDS011;75051;53.104;18.058;2023-12-20T11:25:59;6.10;;;4.00;;
84816;SDS011;75051;53.104;18.058;2023-12-20T11:28:27;6.30;;;3.80;;
84816;SDS011;75051;53.104;18.058;2023-12-20T11:30:56;8.00;;;5.30;;
84816;SDS011;75051;53.104;18.058;2023-12-20T11:33:26;7.10;;;4.60;;
84816;SDS011;75051;53.104;18.058;2023-12-20T11:35:57;5.50;;;3.70;;
84816;SDS011;75051;53.104;18.058;2023-12-20T11:38:25;5.60;;;3.20;;
84816;SDS011;75051;53.104;18.058;2023-12-20T11:40:53;6.60;;;3.30;;
84816;SDS011;75051;53.104;18.058;2023-12-20T11:43:31;4.80;;;2.70;;
84816;SDS011;75051;53.104;18.058;2023-12-20T11:46:04;6.50;;;4.10;;
84816;SDS011;75051;53.104;18.058;2023-12-20T11:48:35;8.90;;;3.70;;
84816;SDS011;75051;53.104;18.058;2023-12-20T11:51:08;4.10;;;3.00;;
84816;SDS011;75051;53.104;18.058;2023-12-20T11:53:35;6.40;;;3.80;;
84816;SDS011;75051;53.104;18.058;2023-12-20T11:56:02;10.40;;;3.60;;
84816;SDS011;75051;53.104;18.058;2023-12-20T11:58:30;6.80;;;4.20;;
84816;SDS011;75051;53.104;18.058;2023-12-20T12:00:56;6.10;;;3.60;;
84816;SDS011;75051;53.104;18.058;2023-12-20T12:03:22;6.50;;;4.00;;
84816;SDS011;75051;53.104;18.058;2023-12-20T12:05:49;12.70;;;4.60;;
84816;SDS011;75051;53.104;18.058;2023-12-20T12:08:19;7.30;;;3.40;;
84816;SDS011;75051;53.104;18.058;2023-12-20T12:10:44;6.10;;;2.90;;
84816;SDS011;75051;53.104;18.058;2023-12-20T12:13:10;5.30;;;2.90;;
84816;SDS011;75051;53.104;18.058;2023-12-20T12:15:37;8.20;;;2.70;;
84816;SDS011;75051;53.104;18.058;2023-12-20T12:18:03;7.20;;;3.40;;
84816;SDS011;75051;53.104;18.058;2023-12-20T12:20:30;7.00;;;4.00;;
84816;SDS011;75051;53.104;18.058;2023-12-20T12:23:00;5.10;;;3.90;;
84816;SDS011;75051;53.104;18.058;2023-12-20T12:25:28;7.70;;;2.70;;
84816;SDS011;75051;53.104;18.058;2023-12-20T12:27:57;7.80;;;3.70;;
84816;SDS011;75051;53.104;18.058;2023-12-20T12:30:24;7.20;;;3.40;;
84816;SDS011;75051;53.104;18.058;2023-12-20T12:32:50;8.20;;;3.80;;
84816;SDS011;75051;53.104;18.058;2023-12-20T12:35:17;6.00;;;3.50;;
84816;SDS011;75051;53.104;18.058;2023-12-20T12:37:44;6.50;;;4.10;;
84816;SDS011;75051;53.104;18.058;2023-12-20T12:40:13;6.70;;;3.60;;
84816;SDS011;75051;53.104;18.058;2023-12-20T12:42:41;5.40;;;3.30;;
84816;SDS011;75051;53.104;18.058;2023-12-20T12:45:09;6.10;;;3.20;;
84816;SDS011;75051;53.104;18.058;2023-12-20T12:47:37;4.90;;;3.30;;
84816;SDS011;75051;53.104;18.058;2023-12-20T12:50:03;6.40;;;3.00;;
84816;SDS011;75051;53.104;18.058;2023-12-20T12:52:30;7.60;;;3.70;;
84816;SDS011;75051;53.104;18.058;2023-12-20T12:54:56;5.10;;;2.60;;
84816;SDS011;75051;53.104;18.058;2023-12-20T12:57:22;5.50;;;3.20;;
84816;SDS011;75051;53.104;18.058;2023-12-20T12:59:49;4.10;;;3.00;;
84816;SDS011;75051;53.104;18.058;2023-12-20T13:02:15;6.70;;;3.80;;
84816;SDS011;75051;53.104;18.058;2023-12-20T13:04:41;6.80;;;3.50;;
84816;SDS011;75051;53.104;18.058;2023-12-20T13:07:08;7.20;;;3.60;;
84816;SDS011;75051;53.104;18.058;2023-12-20T13:09:38;5.90;;;3.30;;
84816;SDS011;75051;53.104;18.058;2023-12-20T13:12:05;7.00;;;3.40;;
84816;SDS011;75051;53.104;18.058;2023-12-20T13:14:33;5.50;;;4.10;;
84816;SDS011;75051;53.104;18.058;2023-12-20T13:17:03;7.30;;;3.70;;
84816;SDS011;75051;53.104;18.058;2023-12-20T13:19:29;7.60;;;3.60;;
84816;SDS011;75051;53.104;18.058;2023-12-20T13:21:56;5.90;;;2.90;;
84816;SDS011;75051;53.104;18.058;2023-12-20T13:24:23;5.30;;;3.10;;
84816;SDS011;75051;53.104;18.058;2023-12-20T13:26:49;6.80;;;3.90;;
84816;SDS011;75051;53.104;18.058;2023-12-20T13:29:16;6.40;;;3.50;;
84816;SDS011;75051;53.104;18.058;2023-12-20T13:31:42;9.50;;;4.80;;
84816;SDS011;75051;53.104;18.058;2023-12-20T13:34:08;5.10;;;3.50;;
84816;SDS011;75051;53.104;18.058;2023-12-20T13:36:34;7.60;;;3.90;;
84816;SDS011;75051;53.104;18.058;2023-12-20T13:39:02;6.00;;;4.00;;
84816;SDS011;75051;53.104;18.058;2023-12-20T13:41:30;5.30;;;3.50;;
84816;SDS011;75051;53.104;18.058;2023-12-20T13:43:56;6.80;;;4.60;;
84816;SDS011;75051;53.104;18.058;2023-12-20T13:46:22;5.10;;;3.90;;
84816;SDS011;75051;53.104;18.058;2023-12-20T13:48:49;6.10;;;3.90;;
84816;SDS011;75051;53.104;18.058;2023-12-20T13:51:15;5.70;;;4.10;;
84816;SDS011;75051;53.104;18.058;2023-12-20T13:53:41;5.50;;;3.00;;
84816;SDS011;75051;53.104;18.058;2023-12-20T13:56:07;6.10;;;3.60;;
84816;SDS011;75051;53.104;18.058;2023-12-20T13:58:33;10.40;;;5.50;;
84816;SDS011;75051;53.104;18.058;2023-12-20T14:00:59;8.60;;;5.80;;
84816;SDS011;75051;53.104;18.058;2023-12-20T14:03:25;6.70;;;4.50;;
84816;SDS011;75051;53.104;18.058;2023-12-20T14:05:51;9.70;;;5.00;;
84816;SDS011;75051;53.104;18.058;2023-12-20T14:08:16;8.10;;;5.00;;
84816;SDS011;75051;53.104;18.058;2023-12-20T14:10:42;7.60;;;5.40;;
84816;SDS011;75051;53.104;18.058;2023-12-20T14:13:08;9.00;;;6.00;;
84816;SDS011;75051;53.104;18.058;2023-12-20T14:15:34;8.40;;;3.50;;
84816;SDS011;75051;53.104;18.058;2023-12-20T14:18:04;7.50;;;4.30;;
84816;SDS011;75051;53.104;18.058;2023-12-20T14:20:32;9.80;;;4.90;;
84816;SDS011;75051;53.104;18.058;2023-12-20T14:23:00;8.60;;;4.70;;
84816;SDS011;75051;53.104;18.058;2023-12-20T14:25:27;8.70;;;4.80;;
84816;SDS011;75051;53.104;18.058;2023-12-20T14:27:53;10.20;;;5.90;;
84816;SDS011;75051;53.104;18.058;2023-12-20T14:30:19;10.70;;;5.70;;
84816;SDS011;75051;53.104;18.058;2023-12-20T14:32:45;6.70;;;4.30;;